sensor_id;sensor_type;location;lat;lon;timestamp;P1;durP1;ratioP1;P2;durP2;ratioP2
60038;SDS011;45916;52.734;6.544;2023-03-14T00:01:11;17.70;;;6.65;;
60038;SDS011;45916;52.734;6.544;2023-03-14T00:03:39;22.25;;;6.90;;
60038;SDS011;45916;52.734;6.544;2023-03-14T00:06:05;20.52;;;5.97;;
60038;SDS011;45916;52.734;6.544;2023-03-14T00:08:32;19.13;;;6.00;;
60038;SDS011;45916;52.734;6.544;2023-03-14T00:11:03;16.38;;;6.00;;
60038;SDS011;45916;52.734;6.544;2023-03-14T00:13:33;18.27;;;6.55;;
60038;SDS011;45916;52.734;6.544;2023-03-14T00:16:06;16.40;;;6.20;;
60038;SDS011;45916;52.734;6.544;2023-03-14T00:18:38;22.65;;;6.82;;
60038;SDS011;45916;52.734;6.544;2023-03-14T00:21:05;19.67;;;6.28;;
60038;SDS011;45916;52.734;6.544;2023-03-14T00:23:32;17.98;;;6.13;;
60038;SDS011;45916;52.734;6.544;2023-03-14T00:25:59;20.83;;;7.03;;
60038;SDS011;45916;52.734;6.544;2023-03-14T00:28:27;17.45;;;6.63;;
60038;SDS011;45916;52.734;6.544;2023-03-14T00:30:52;19.73;;;6.22;;
60038;SDS011;45916;52.734;6.544;2023-03-14T00:33:18;20.05;;;8.13;;
60038;SDS011;45916;52.734;6.544;2023-03-14T00:35:51;16.35;;;6.97;;
60038;SDS011;45916;52.734;6.544;2023-03-14T00:38:24;15.55;;;6.55;;
60038;SDS011;45916;52.734;6.544;2023-03-14T00:40:51;15.43;;;6.50;;
60038;SDS011;45916;52.734;6.544;2023-03-14T00:43:17;17.25;;;7.90;;
60038;SDS011;45916;52.734;6.544;2023-03-14T00:45:46;23.20;;;7.63;;
60038;SDS011;45916;52.734;6.544;2023-03-14T00:48:13;23.00;;;8.38;;
60038;SDS011;45916;52.734;6.544;2023-03-14T00:50:38;16.35;;;7.65;;
60038;SDS011;45916;52.734;6.544;2023-03-14T00:53:04;17.23;;;8.13;;
60038;SDS011;45916;52.734;6.544;2023-03-14T00:55:30;16.63;;;8.15;;
60038;SDS011;45916;52.734;6.544;2023-03-14T00:57:55;17.73;;;7.88;;
60038;SDS011;45916;52.734;6.544;2023-03-14T01:00:21;15.80;;;8.10;;
60038;SDS011;45916;52.734;6.544;2023-03-14T01:02:47;19.00;;;7.95;;
60038;SDS011;45916;52.734;6.544;2023-03-14T01:05:14;17.08;;;6.93;;
60038;SDS011;45916;52.734;6.544;2023-03-14T01:07:40;17.92;;;7.10;;
60038;SDS011;45916;52.734;6.544;2023-03-14T01:10:06;18.10;;;6.60;;
60038;SDS011;45916;52.734;6.544;2023-03-14T01:12:32;19.13;;;8.05;;
60038;SDS011;45916;52.734;6.544;2023-03-14T01:14:58;13.93;;;6.30;;
60038;SDS011;45916;52.734;6.544;2023-03-14T01:17:23;16.70;;;7.50;;
60038;SDS011;45916;52.734;6.544;2023-03-14T01:19:49;13.68;;;6.75;;
60038;SDS011;45916;52.734;6.544;2023-03-14T01:22:15;15.02;;;6.38;;
60038;SDS011;45916;52.734;6.544;2023-03-14T01:24:40;19.85;;;6.38;;
60038;SDS011;45916;52.734;6.544;2023-03-14T01:27:06;14.52;;;6.32;;
60038;SDS011;45916;52.734;6.544;2023-03-14T01:29:32;14.77;;;6.60;;
60038;SDS011;45916;52.734;6.544;2023-03-14T01:31:57;16.33;;;6.38;;
60038;SDS011;45916;52.734;6.544;2023-03-14T01:34:23;12.45;;;4.78;;
60038;SDS011;45916;52.734;6.544;2023-03-14T01:36:49;18.73;;;6.20;;
60038;SDS011;45916;52.734;6.544;2023-03-14T01:39:15;15.60;;;6.07;;
60038;SDS011;45916;52.734;6.544;2023-03-14T01:41:40;15.38;;;6.28;;
60038;SDS011;45916;52.734;6.544;2023-03-14T01:44:12;16.88;;;6.40;;
60038;SDS011;45916;52.734;6.544;2023-03-14T01:46:39;14.70;;;6.30;;
60038;SDS011;45916;52.734;6.544;2023-03-14T01:49:13;16.23;;;7.32;;
60038;SDS011;45916;52.734;6.544;2023-03-14T01:57:11;17.10;;;7.07;;
60038;SDS011;45916;52.734;6.544;2023-03-14T01:59:43;19.02;;;7.38;;
60038;SDS011;45916;52.734;6.544;2023-03-14T02:02:13;17.88;;;7.60;;
60038;SDS011;45916;52.734;6.544;2023-03-14T02:04:40;16.05;;;6.30;;
60038;SDS011;45916;52.734;6.544;2023-03-14T02:09:49;16.25;;;6.45;;
60038;SDS011;45916;52.734;6.544;2023-03-14T02:12:16;18.73;;;6.05;;
60038;SDS011;45916;52.734;6.544;2023-03-14T02:14:43;18.75;;;6.72;;
60038;SDS011;45916;52.734;6.544;2023-03-14T02:17:13;17.48;;;6.55;;
60038;SDS011;45916;52.734;6.544;2023-03-14T02:20:01;16.08;;;5.88;;
60038;SDS011;45916;52.734;6.544;2023-03-14T02:22:35;17.75;;;6.28;;
60038;SDS011;45916;52.734;6.544;2023-03-14T02:25:13;13.07;;;6.33;;
60038;SDS011;45916;52.734;6.544;2023-03-14T02:28:00;16.25;;;6.45;;
60038;SDS011;45916;52.734;6.544;2023-03-14T02:30:27;13.93;;;6.22;;
60038;SDS011;45916;52.734;6.544;2023-03-14T02:32:55;16.25;;;5.97;;
60038;SDS011;45916;52.734;6.544;2023-03-14T02:35:32;12.60;;;5.25;;
60038;SDS011;45916;52.734;6.544;2023-03-14T02:38:18;11.27;;;5.28;;
60038;SDS011;45916;52.734;6.544;2023-03-14T02:40:52;12.82;;;5.30;;
60038;SDS011;45916;52.734;6.544;2023-03-14T02:43:18;11.02;;;5.45;;
60038;SDS011;45916;52.734;6.544;2023-03-14T02:45:45;13.85;;;4.95;;
60038;SDS011;45916;52.734;6.544;2023-03-14T02:48:23;11.73;;;4.20;;
60038;SDS011;45916;52.734;6.544;2023-03-14T02:53:19;10.50;;;3.88;;
60038;SDS011;45916;52.734;6.544;2023-03-14T02:55:49;9.43;;;4.03;;
60038;SDS011;45916;52.734;6.544;2023-03-14T02:58:16;13.48;;;4.95;;
60038;SDS011;45916;52.734;6.544;2023-03-14T03:00:42;10.10;;;5.00;;
60038;SDS011;45916;52.734;6.544;2023-03-14T03:03:08;10.68;;;5.00;;
60038;SDS011;45916;52.734;6.544;2023-03-14T03:05:33;11.68;;;4.95;;
60038;SDS011;45916;52.734;6.544;2023-03-14T03:07:59;10.18;;;4.50;;
60038;SDS011;45916;52.734;6.544;2023-03-14T03:10:26;13.85;;;5.45;;
60038;SDS011;45916;52.734;6.544;2023-03-14T03:12:52;13.93;;;5.45;;
60038;SDS011;45916;52.734;6.544;2023-03-14T03:15:18;11.93;;;4.95;;
60038;SDS011;45916;52.734;6.544;2023-03-14T03:17:44;8.80;;;4.97;;
60038;SDS011;45916;52.734;6.544;2023-03-14T03:20:09;12.15;;;5.00;;
60038;SDS011;45916;52.734;6.544;2023-03-14T03:22:36;14.18;;;5.28;;
60038;SDS011;45916;52.734;6.544;2023-03-14T03:25:03;14.32;;;5.72;;
60038;SDS011;45916;52.734;6.544;2023-03-14T03:27:30;13.02;;;4.68;;
60038;SDS011;45916;52.734;6.544;2023-03-14T03:29:57;11.77;;;5.63;;
60038;SDS011;45916;52.734;6.544;2023-03-14T03:32:23;16.77;;;6.82;;
60038;SDS011;45916;52.734;6.544;2023-03-14T03:34:49;11.55;;;5.50;;
60038;SDS011;45916;52.734;6.544;2023-03-14T03:37:15;13.13;;;5.35;;
60038;SDS011;45916;52.734;6.544;2023-03-14T03:39:41;15.27;;;5.82;;
60038;SDS011;45916;52.734;6.544;2023-03-14T03:42:06;9.52;;;4.38;;
60038;SDS011;45916;52.734;6.544;2023-03-14T03:44:32;13.63;;;5.18;;
60038;SDS011;45916;52.734;6.544;2023-03-14T03:46:58;15.32;;;5.20;;
60038;SDS011;45916;52.734;6.544;2023-03-14T03:49:24;12.18;;;5.55;;
60038;SDS011;45916;52.734;6.544;2023-03-14T03:51:53;13.30;;;5.35;;
60038;SDS011;45916;52.734;6.544;2023-03-14T03:54:18;12.07;;;5.63;;
60038;SDS011;45916;52.734;6.544;2023-03-14T03:56:44;14.45;;;5.10;;
60038;SDS011;45916;52.734;6.544;2023-03-14T03:59:10;9.88;;;4.70;;
60038;SDS011;45916;52.734;6.544;2023-03-14T04:01:35;11.52;;;4.97;;
60038;SDS011;45916;52.734;6.544;2023-03-14T04:04:01;11.05;;;4.97;;
60038;SDS011;45916;52.734;6.544;2023-03-14T04:06:27;12.43;;;4.63;;
60038;SDS011;45916;52.734;6.544;2023-03-14T04:08:53;12.48;;;4.75;;
60038;SDS011;45916;52.734;6.544;2023-03-14T04:11:19;9.50;;;4.47;;
60038;SDS011;45916;52.734;6.544;2023-03-14T04:13:44;10.43;;;4.45;;
60038;SDS011;45916;52.734;6.544;2023-03-14T04:16:18;14.13;;;4.95;;
60038;SDS011;45916;52.734;6.544;2023-03-14T04:18:45;11.65;;;5.30;;
60038;SDS011;45916;52.734;6.544;2023-03-14T04:21:11;9.98;;;5.57;;
60038;SDS011;45916;52.734;6.544;2023-03-14T04:23:37;12.75;;;5.82;;
60038;SDS011;45916;52.734;6.544;2023-03-14T04:26:02;10.25;;;5.18;;
60038;SDS011;45916;52.734;6.544;2023-03-14T04:28:28;10.00;;;5.80;;
60038;SDS011;45916;52.734;6.544;2023-03-14T04:30:54;8.63;;;4.95;;
60038;SDS011;45916;52.734;6.544;2023-03-14T04:33:20;12.05;;;5.90;;
60038;SDS011;45916;52.734;6.544;2023-03-14T04:35:46;10.57;;;4.93;;
60038;SDS011;45916;52.734;6.544;2023-03-14T04:38:12;12.88;;;7.22;;
60038;SDS011;45916;52.734;6.544;2023-03-14T04:40:39;13.77;;;7.03;;
60038;SDS011;45916;52.734;6.544;2023-03-14T04:43:06;13.60;;;6.95;;
60038;SDS011;45916;52.734;6.544;2023-03-14T04:45:34;11.90;;;6.70;;
60038;SDS011;45916;52.734;6.544;2023-03-14T04:48:00;12.40;;;6.60;;
60038;SDS011;45916;52.734;6.544;2023-03-14T04:50:26;12.48;;;6.03;;
60038;SDS011;45916;52.734;6.544;2023-03-14T04:52:52;13.02;;;7.00;;
60038;SDS011;45916;52.734;6.544;2023-03-14T04:55:17;12.07;;;6.95;;
60038;SDS011;45916;52.734;6.544;2023-03-14T04:57:43;15.52;;;7.10;;
60038;SDS011;45916;52.734;6.544;2023-03-14T05:00:09;16.33;;;7.40;;
60038;SDS011;45916;52.734;6.544;2023-03-14T05:02:35;12.88;;;7.05;;
60038;SDS011;45916;52.734;6.544;2023-03-14T05:05:01;14.30;;;6.70;;
60038;SDS011;45916;52.734;6.544;2023-03-14T05:07:26;12.95;;;6.68;;
60038;SDS011;45916;52.734;6.544;2023-03-14T05:09:52;13.57;;;7.13;;
60038;SDS011;45916;52.734;6.544;2023-03-14T05:12:18;11.70;;;7.47;;
60038;SDS011;45916;52.734;6.544;2023-03-14T05:14:47;14.02;;;7.00;;
60038;SDS011;45916;52.734;6.544;2023-03-14T05:17:13;9.63;;;5.63;;
60038;SDS011;45916;52.734;6.544;2023-03-14T05:19:39;14.18;;;7.03;;
60038;SDS011;45916;52.734;6.544;2023-03-14T05:22:06;11.07;;;6.28;;
60038;SDS011;45916;52.734;6.544;2023-03-14T05:24:32;11.82;;;6.55;;
60038;SDS011;45916;52.734;6.544;2023-03-14T05:26:58;12.52;;;5.75;;
60038;SDS011;45916;52.734;6.544;2023-03-14T05:29:24;10.63;;;4.95;;
60038;SDS011;45916;52.734;6.544;2023-03-14T05:31:49;14.48;;;5.47;;
60038;SDS011;45916;52.734;6.544;2023-03-14T05:34:15;13.77;;;5.82;;
60038;SDS011;45916;52.734;6.544;2023-03-14T05:36:41;12.80;;;5.72;;
60038;SDS011;45916;52.734;6.544;2023-03-14T05:39:06;13.68;;;5.70;;
60038;SDS011;45916;52.734;6.544;2023-03-14T05:41:32;12.52;;;5.00;;
60038;SDS011;45916;52.734;6.544;2023-03-14T05:43:58;10.57;;;4.55;;
60038;SDS011;45916;52.734;6.544;2023-03-14T05:46:23;11.40;;;5.03;;
60038;SDS011;45916;52.734;6.544;2023-03-14T05:48:49;13.57;;;5.57;;
60038;SDS011;45916;52.734;6.544;2023-03-14T05:51:15;10.57;;;5.05;;
60038;SDS011;45916;52.734;6.544;2023-03-14T05:53:40;15.75;;;6.05;;
60038;SDS011;45916;52.734;6.544;2023-03-14T05:56:06;10.13;;;4.80;;
60038;SDS011;45916;52.734;6.544;2023-03-14T05:58:32;10.10;;;4.93;;
60038;SDS011;45916;52.734;6.544;2023-03-14T06:01:01;9.60;;;4.43;;
60038;SDS011;45916;52.734;6.544;2023-03-14T06:03:28;13.70;;;5.63;;
60038;SDS011;45916;52.734;6.544;2023-03-14T06:05:54;11.70;;;5.30;;
60038;SDS011;45916;52.734;6.544;2023-03-14T06:08:20;14.32;;;5.80;;
60038;SDS011;45916;52.734;6.544;2023-03-14T06:10:45;15.73;;;6.38;;
60038;SDS011;45916;52.734;6.544;2023-03-14T06:13:11;11.13;;;5.82;;
60038;SDS011;45916;52.734;6.544;2023-03-14T06:15:37;11.18;;;5.75;;
60038;SDS011;45916;52.734;6.544;2023-03-14T06:18:02;14.38;;;6.70;;
60038;SDS011;45916;52.734;6.544;2023-03-14T06:20:28;13.30;;;6.60;;
60038;SDS011;45916;52.734;6.544;2023-03-14T06:22:54;13.65;;;5.90;;
60038;SDS011;45916;52.734;6.544;2023-03-14T06:25:19;12.55;;;5.63;;
60038;SDS011;45916;52.734;6.544;2023-03-14T06:27:45;13.45;;;7.53;;
60038;SDS011;45916;52.734;6.544;2023-03-14T06:30:11;16.48;;;6.40;;
60038;SDS011;45916;52.734;6.544;2023-03-14T06:32:37;14.40;;;5.93;;
60038;SDS011;45916;52.734;6.544;2023-03-14T06:35:02;15.73;;;6.28;;
60038;SDS011;45916;52.734;6.544;2023-03-14T06:37:28;13.82;;;6.65;;
60038;SDS011;45916;52.734;6.544;2023-03-14T06:39:55;14.43;;;6.20;;
60038;SDS011;45916;52.734;6.544;2023-03-14T06:42:21;14.02;;;5.95;;
60038;SDS011;45916;52.734;6.544;2023-03-14T06:44:47;12.77;;;5.57;;
60038;SDS011;45916;52.734;6.544;2023-03-14T06:47:13;13.57;;;5.35;;
60038;SDS011;45916;52.734;6.544;2023-03-14T06:49:39;15.23;;;5.88;;
60038;SDS011;45916;52.734;6.544;2023-03-14T06:52:04;11.68;;;5.47;;
60038;SDS011;45916;52.734;6.544;2023-03-14T06:54:30;9.75;;;5.70;;
60038;SDS011;45916;52.734;6.544;2023-03-14T06:56:56;10.57;;;5.32;;
60038;SDS011;45916;52.734;6.544;2023-03-14T06:59:21;13.32;;;6.00;;
60038;SDS011;45916;52.734;6.544;2023-03-14T07:01:49;11.00;;;6.00;;
60038;SDS011;45916;52.734;6.544;2023-03-14T07:04:15;11.35;;;7.13;;
60038;SDS011;45916;52.734;6.544;2023-03-14T07:06:42;12.95;;;6.80;;
60038;SDS011;45916;52.734;6.544;2023-03-14T07:09:10;11.25;;;5.45;;
60038;SDS011;45916;52.734;6.544;2023-03-14T07:11:36;15.52;;;6.95;;
60038;SDS011;45916;52.734;6.544;2023-03-14T07:14:02;14.93;;;7.03;;
60038;SDS011;45916;52.734;6.544;2023-03-14T07:16:28;10.15;;;5.68;;
60038;SDS011;45916;52.734;6.544;2023-03-14T07:18:56;9.68;;;4.53;;
60038;SDS011;45916;52.734;6.544;2023-03-14T07:21:22;9.80;;;3.30;;
60038;SDS011;45916;52.734;6.544;2023-03-14T07:23:48;7.80;;;2.55;;
60038;SDS011;45916;52.734;6.544;2023-03-14T07:26:14;4.97;;;2.22;;
60038;SDS011;45916;52.734;6.544;2023-03-14T07:28:40;9.65;;;2.78;;
60038;SDS011;45916;52.734;6.544;2023-03-14T07:31:06;6.05;;;2.53;;
60038;SDS011;45916;52.734;6.544;2023-03-14T07:33:32;5.15;;;2.55;;
60038;SDS011;45916;52.734;6.544;2023-03-14T07:35:58;7.05;;;2.85;;
60038;SDS011;45916;52.734;6.544;2023-03-14T07:38:24;8.80;;;3.28;;
60038;SDS011;45916;52.734;6.544;2023-03-14T07:40:49;7.47;;;3.30;;
60038;SDS011;45916;52.734;6.544;2023-03-14T07:43:15;5.38;;;1.92;;
60038;SDS011;45916;52.734;6.544;2023-03-14T07:45:44;7.43;;;1.75;;
60038;SDS011;45916;52.734;6.544;2023-03-14T07:48:10;8.50;;;2.33;;
60038;SDS011;45916;52.734;6.544;2023-03-14T07:50:36;8.90;;;2.00;;
60038;SDS011;45916;52.734;6.544;2023-03-14T07:53:02;7.90;;;1.67;;
60038;SDS011;45916;52.734;6.544;2023-03-14T07:55:27;6.93;;;1.38;;
60038;SDS011;45916;52.734;6.544;2023-03-14T07:57:53;5.47;;;1.30;;
60038;SDS011;45916;52.734;6.544;2023-03-14T08:00:19;6.53;;;1.50;;
60038;SDS011;45916;52.734;6.544;2023-03-14T08:02:45;7.78;;;1.63;;
60038;SDS011;45916;52.734;6.544;2023-03-14T08:05:10;5.28;;;1.33;;
60038;SDS011;45916;52.734;6.544;2023-03-14T08:07:36;3.45;;;0.98;;
60038;SDS011;45916;52.734;6.544;2023-03-14T08:10:02;4.63;;;1.05;;
60038;SDS011;45916;52.734;6.544;2023-03-14T08:12:28;2.50;;;0.70;;
60038;SDS011;45916;52.734;6.544;2023-03-14T08:14:54;5.13;;;0.95;;
60038;SDS011;45916;52.734;6.544;2023-03-14T08:17:19;1.58;;;0.75;;
60038;SDS011;45916;52.734;6.544;2023-03-14T08:19:45;2.45;;;0.60;;
60038;SDS011;45916;52.734;6.544;2023-03-14T08:22:11;3.00;;;0.70;;
60038;SDS011;45916;52.734;6.544;2023-03-14T08:24:36;1.92;;;0.70;;
60038;SDS011;45916;52.734;6.544;2023-03-14T08:27:02;3.08;;;0.88;;
60038;SDS011;45916;52.734;6.544;2023-03-14T08:29:28;2.40;;;0.82;;
60038;SDS011;45916;52.734;6.544;2023-03-14T08:31:53;4.10;;;0.88;;
60038;SDS011;45916;52.734;6.544;2023-03-14T08:34:20;2.85;;;0.90;;
60038;SDS011;45916;52.734;6.544;2023-03-14T08:36:46;5.70;;;1.10;;
60038;SDS011;45916;52.734;6.544;2023-03-14T08:39:12;2.60;;;0.93;;
60038;SDS011;45916;52.734;6.544;2023-03-14T08:41:38;2.92;;;0.93;;
60038;SDS011;45916;52.734;6.544;2023-03-14T08:44:09;4.93;;;1.17;;
60038;SDS011;45916;52.734;6.544;2023-03-14T08:46:36;7.22;;;1.80;;
60038;SDS011;45916;52.734;6.544;2023-03-14T08:49:02;2.25;;;1.08;;
60038;SDS011;45916;52.734;6.544;2023-03-14T08:51:28;2.92;;;1.27;;
60038;SDS011;45916;52.734;6.544;2023-03-14T08:53:54;4.85;;;1.30;;
60038;SDS011;45916;52.734;6.544;2023-03-14T08:56:20;3.95;;;1.40;;
60038;SDS011;45916;52.734;6.544;2023-03-14T08:58:46;2.92;;;1.30;;
60038;SDS011;45916;52.734;6.544;2023-03-14T09:01:11;3.35;;;1.30;;
60038;SDS011;45916;52.734;6.544;2023-03-14T09:03:37;2.58;;;0.80;;
60038;SDS011;45916;52.734;6.544;2023-03-14T09:06:04;5.55;;;1.13;;
60038;SDS011;45916;52.734;6.544;2023-03-14T09:08:31;7.07;;;1.92;;
60038;SDS011;45916;52.734;6.544;2023-03-14T09:10:57;3.92;;;1.77;;
60038;SDS011;45916;52.734;6.544;2023-03-14T09:13:22;5.25;;;1.23;;
60038;SDS011;45916;52.734;6.544;2023-03-14T09:15:52;5.32;;;1.10;;
60038;SDS011;45916;52.734;6.544;2023-03-14T09:18:18;8.75;;;1.38;;
60038;SDS011;45916;52.734;6.544;2023-03-14T09:20:44;6.82;;;1.40;;
60038;SDS011;45916;52.734;6.544;2023-03-14T09:23:09;6.45;;;1.50;;
60038;SDS011;45916;52.734;6.544;2023-03-14T09:25:35;6.72;;;2.00;;
60038;SDS011;45916;52.734;6.544;2023-03-14T09:28:01;3.80;;;1.00;;
60038;SDS011;45916;52.734;6.544;2023-03-14T09:30:26;7.65;;;1.52;;
60038;SDS011;45916;52.734;6.544;2023-03-14T09:32:52;6.63;;;1.80;;
60038;SDS011;45916;52.734;6.544;2023-03-14T09:35:18;6.95;;;1.70;;
60038;SDS011;45916;52.734;6.544;2023-03-14T09:37:43;6.07;;;1.50;;
60038;SDS011;45916;52.734;6.544;2023-03-14T09:40:13;7.10;;;1.58;;
60038;SDS011;45916;52.734;6.544;2023-03-14T09:42:40;10.25;;;2.53;;
60038;SDS011;45916;52.734;6.544;2023-03-14T09:45:10;11.10;;;2.00;;
60038;SDS011;45916;52.734;6.544;2023-03-14T09:47:40;9.52;;;2.15;;
60038;SDS011;45916;52.734;6.544;2023-03-14T09:50:09;9.55;;;2.47;;
60038;SDS011;45916;52.734;6.544;2023-03-14T09:52:39;11.25;;;2.55;;
60038;SDS011;45916;52.734;6.544;2023-03-14T09:55:14;13.02;;;3.47;;
60038;SDS011;45916;52.734;6.544;2023-03-14T09:57:46;11.80;;;2.22;;
60038;SDS011;45916;52.734;6.544;2023-03-14T10:00:19;10.73;;;2.40;;
60038;SDS011;45916;52.734;6.544;2023-03-14T10:02:50;16.58;;;4.85;;
60038;SDS011;45916;52.734;6.544;2023-03-14T10:05:34;15.07;;;3.28;;
60038;SDS011;45916;52.734;6.544;2023-03-14T10:07:59;11.40;;;3.13;;
60038;SDS011;45916;52.734;6.544;2023-03-14T10:10:25;13.10;;;3.33;;
60038;SDS011;45916;52.734;6.544;2023-03-14T10:12:56;12.25;;;2.97;;
60038;SDS011;45916;52.734;6.544;2023-03-14T10:15:33;13.95;;;3.25;;
60038;SDS011;45916;52.734;6.544;2023-03-14T10:18:00;12.27;;;3.25;;
60038;SDS011;45916;52.734;6.544;2023-03-14T10:20:34;10.00;;;2.47;;
60038;SDS011;45916;52.734;6.544;2023-03-14T10:23:02;14.18;;;3.40;;
60038;SDS011;45916;52.734;6.544;2023-03-14T10:25:32;14.77;;;3.08;;
60038;SDS011;45916;52.734;6.544;2023-03-14T10:27:59;8.18;;;2.42;;
60038;SDS011;45916;52.734;6.544;2023-03-14T10:33:30;9.15;;;2.92;;
60038;SDS011;45916;52.734;6.544;2023-03-14T10:35:57;14.35;;;3.75;;
60038;SDS011;45916;52.734;6.544;2023-03-14T10:38:29;14.38;;;4.00;;
60038;SDS011;45916;52.734;6.544;2023-03-14T10:40:56;13.70;;;3.47;;
60038;SDS011;45916;52.734;6.544;2023-03-14T10:43:25;14.18;;;3.33;;
60038;SDS011;45916;52.734;6.544;2023-03-14T10:46:00;12.57;;;3.45;;
60038;SDS011;45916;52.734;6.544;2023-03-14T10:48:46;15.43;;;4.00;;
60038;SDS011;45916;52.734;6.544;2023-03-14T10:53:49;13.05;;;4.50;;
60038;SDS011;45916;52.734;6.544;2023-03-14T10:56:21;12.73;;;3.63;;
60038;SDS011;45916;52.734;6.544;2023-03-14T10:58:49;13.63;;;3.53;;
60038;SDS011;45916;52.734;6.544;2023-03-14T11:06:53;9.30;;;3.35;;
60038;SDS011;45916;52.734;6.544;2023-03-14T11:09:52;14.90;;;4.45;;
60038;SDS011;45916;52.734;6.544;2023-03-14T11:15:20;9.15;;;3.17;;
60038;SDS011;45916;52.734;6.544;2023-03-14T11:18:25;10.48;;;3.60;;
60038;SDS011;45916;52.734;6.544;2023-03-14T11:21:51;16.63;;;3.88;;
60038;SDS011;45916;52.734;6.544;2023-03-14T11:31:46;7.20;;;2.72;;
60038;SDS011;45916;52.734;6.544;2023-03-14T11:34:27;9.25;;;2.63;;
60038;SDS011;45916;52.734;6.544;2023-03-14T11:37:00;9.35;;;2.95;;
60038;SDS011;45916;52.734;6.544;2023-03-14T11:39:37;9.95;;;2.33;;
60038;SDS011;45916;52.734;6.544;2023-03-14T11:42:07;11.88;;;2.85;;
60038;SDS011;45916;52.734;6.544;2023-03-14T11:44:39;9.65;;;2.80;;
60038;SDS011;45916;52.734;6.544;2023-03-14T11:52:22;15.45;;;3.08;;
60038;SDS011;45916;52.734;6.544;2023-03-14T11:54:56;9.82;;;2.15;;
60038;SDS011;45916;52.734;6.544;2023-03-14T11:57:28;9.43;;;2.40;;
60038;SDS011;45916;52.734;6.544;2023-03-14T12:02:48;11.07;;;2.58;;
60038;SDS011;45916;52.734;6.544;2023-03-14T12:05:27;12.50;;;2.78;;
60038;SDS011;45916;52.734;6.544;2023-03-14T12:08:22;8.52;;;2.20;;
60038;SDS011;45916;52.734;6.544;2023-03-14T12:11:04;9.10;;;2.25;;
60038;SDS011;45916;52.734;6.544;2023-03-14T12:13:53;12.00;;;2.42;;
60038;SDS011;45916;52.734;6.544;2023-03-14T12:16:27;10.60;;;2.40;;
60038;SDS011;45916;52.734;6.544;2023-03-14T12:19:13;10.20;;;2.33;;
60038;SDS011;45916;52.734;6.544;2023-03-14T12:22:00;7.82;;;2.20;;
60038;SDS011;45916;52.734;6.544;2023-03-14T12:24:34;5.82;;;1.50;;
60038;SDS011;45916;52.734;6.544;2023-03-14T12:27:03;8.70;;;2.25;;
60038;SDS011;45916;52.734;6.544;2023-03-14T12:29:30;7.32;;;1.77;;
60038;SDS011;45916;52.734;6.544;2023-03-14T12:34:45;6.90;;;1.30;;
60038;SDS011;45916;52.734;6.544;2023-03-14T12:37:14;6.13;;;1.90;;
60038;SDS011;45916;52.734;6.544;2023-03-14T12:45:14;6.38;;;1.80;;
60038;SDS011;45916;52.734;6.544;2023-03-14T12:47:52;7.68;;;1.75;;
60038;SDS011;45916;52.734;6.544;2023-03-14T12:50:26;6.32;;;2.10;;
60038;SDS011;45916;52.734;6.544;2023-03-14T12:53:05;6.57;;;1.92;;
60038;SDS011;45916;52.734;6.544;2023-03-14T12:55:36;6.97;;;1.70;;
60038;SDS011;45916;52.734;6.544;2023-03-14T13:01:35;6.25;;;2.10;;
60038;SDS011;45916;52.734;6.544;2023-03-14T13:04:08;10.73;;;1.77;;
60038;SDS011;45916;52.734;6.544;2023-03-14T13:06:47;11.25;;;3.35;;
60038;SDS011;45916;52.734;6.544;2023-03-14T13:12:10;5.90;;;1.88;;
60038;SDS011;45916;52.734;6.544;2023-03-14T13:14:48;7.45;;;1.88;;
60038;SDS011;45916;52.734;6.544;2023-03-14T13:17:26;11.98;;;2.47;;
60038;SDS011;45916;52.734;6.544;2023-03-14T13:19:56;11.77;;;2.20;;
60038;SDS011;45916;52.734;6.544;2023-03-14T13:22:27;10.85;;;3.00;;
60038;SDS011;45916;52.734;6.544;2023-03-14T13:25:02;12.02;;;2.55;;
60038;SDS011;45916;52.734;6.544;2023-03-14T13:27:37;7.28;;;2.08;;
60038;SDS011;45916;52.734;6.544;2023-03-14T13:32:50;9.77;;;2.25;;
60038;SDS011;45916;52.734;6.544;2023-03-14T13:35:18;8.15;;;2.38;;
60038;SDS011;45916;52.734;6.544;2023-03-14T13:38:20;7.32;;;2.22;;
60038;SDS011;45916;52.734;6.544;2023-03-14T13:40:48;6.45;;;1.33;;
60038;SDS011;45916;52.734;6.544;2023-03-14T13:43:20;4.85;;;1.67;;
60038;SDS011;45916;52.734;6.544;2023-03-14T13:48:28;3.40;;;1.30;;
60038;SDS011;45916;52.734;6.544;2023-03-14T13:50:56;5.97;;;1.30;;
60038;SDS011;45916;52.734;6.544;2023-03-14T13:53:45;8.88;;;1.90;;
60038;SDS011;45916;52.734;6.544;2023-03-14T13:56:14;6.35;;;1.27;;
60038;SDS011;45916;52.734;6.544;2023-03-14T13:58:40;8.23;;;1.70;;
60038;SDS011;45916;52.734;6.544;2023-03-14T14:01:12;7.13;;;1.38;;
60038;SDS011;45916;52.734;6.544;2023-03-14T14:03:39;4.03;;;1.05;;
60038;SDS011;45916;52.734;6.544;2023-03-14T14:08:59;5.70;;;1.65;;
60038;SDS011;45916;52.734;6.544;2023-03-14T14:14:23;6.13;;;1.52;;
60038;SDS011;45916;52.734;6.544;2023-03-14T14:16:59;6.35;;;1.65;;
60038;SDS011;45916;52.734;6.544;2023-03-14T14:19:27;5.05;;;1.45;;
60038;SDS011;45916;52.734;6.544;2023-03-14T14:24:21;8.70;;;2.42;;
60038;SDS011;45916;52.734;6.544;2023-03-14T14:26:54;7.25;;;2.10;;
60038;SDS011;45916;52.734;6.544;2023-03-14T14:29:28;7.90;;;2.15;;
60038;SDS011;45916;52.734;6.544;2023-03-14T14:32:12;9.10;;;2.50;;
60038;SDS011;45916;52.734;6.544;2023-03-14T14:34:46;7.97;;;2.35;;
60038;SDS011;45916;52.734;6.544;2023-03-14T14:37:22;6.25;;;1.60;;
60038;SDS011;45916;52.734;6.544;2023-03-14T14:39:50;7.18;;;1.98;;
60038;SDS011;45916;52.734;6.544;2023-03-14T14:42:19;7.57;;;1.45;;
60038;SDS011;45916;52.734;6.544;2023-03-14T14:44:50;5.68;;;1.83;;
60038;SDS011;45916;52.734;6.544;2023-03-14T14:47:21;7.27;;;2.07;;
60038;SDS011;45916;52.734;6.544;2023-03-14T14:49:49;8.07;;;2.10;;
60038;SDS011;45916;52.734;6.544;2023-03-14T14:52:18;5.80;;;2.10;;
60038;SDS011;45916;52.734;6.544;2023-03-14T14:54:57;7.40;;;2.63;;
60038;SDS011;45916;52.734;6.544;2023-03-14T14:57:25;7.45;;;1.58;;
60038;SDS011;45916;52.734;6.544;2023-03-14T15:00:03;7.13;;;1.67;;
60038;SDS011;45916;52.734;6.544;2023-03-14T15:02:39;8.77;;;2.08;;
60038;SDS011;45916;52.734;6.544;2023-03-14T15:05:21;7.50;;;1.90;;
60038;SDS011;45916;52.734;6.544;2023-03-14T15:07:48;9.38;;;2.63;;
60038;SDS011;45916;52.734;6.544;2023-03-14T15:10:16;9.65;;;2.50;;
60038;SDS011;45916;52.734;6.544;2023-03-14T15:12:43;6.10;;;1.95;;
60038;SDS011;45916;52.734;6.544;2023-03-14T15:15:09;9.40;;;2.28;;
60038;SDS011;45916;52.734;6.544;2023-03-14T15:17:35;6.65;;;1.83;;
60038;SDS011;45916;52.734;6.544;2023-03-14T15:20:03;8.30;;;1.50;;
60038;SDS011;45916;52.734;6.544;2023-03-14T15:22:30;7.75;;;2.28;;
60038;SDS011;45916;52.734;6.544;2023-03-14T15:24:56;17.05;;;2.92;;
60038;SDS011;45916;52.734;6.544;2023-03-14T15:27:22;12.15;;;2.22;;
60038;SDS011;45916;52.734;6.544;2023-03-14T15:29:48;10.38;;;1.75;;
60038;SDS011;45916;52.734;6.544;2023-03-14T15:32:15;6.82;;;1.73;;
60038;SDS011;45916;52.734;6.544;2023-03-14T15:34:43;6.57;;;1.60;;
60038;SDS011;45916;52.734;6.544;2023-03-14T15:37:12;4.80;;;1.40;;
60038;SDS011;45916;52.734;6.544;2023-03-14T15:39:40;8.93;;;1.90;;
60038;SDS011;45916;52.734;6.544;2023-03-14T15:42:07;4.90;;;1.60;;
60038;SDS011;45916;52.734;6.544;2023-03-14T15:44:33;7.85;;;2.00;;
60038;SDS011;45916;52.734;6.544;2023-03-14T15:46:59;6.72;;;1.92;;
60038;SDS011;45916;52.734;6.544;2023-03-14T15:49:25;8.38;;;1.85;;
60038;SDS011;45916;52.734;6.544;2023-03-14T15:51:50;7.15;;;1.90;;
60038;SDS011;45916;52.734;6.544;2023-03-14T15:54:16;8.40;;;2.28;;
60038;SDS011;45916;52.734;6.544;2023-03-14T15:56:42;9.60;;;2.38;;
60038;SDS011;45916;52.734;6.544;2023-03-14T15:59:07;9.93;;;2.40;;